sensor_id;sensor_type;location;lat;lon;timestamp;P1;durP1;ratioP1;P2;durP2;ratioP2
54871;SDS011;43914;57.680;11.982;2023-08-06T00:00:07;5.20;;;1.60;;
54871;SDS011;43914;57.680;11.982;2023-08-06T00:02:33;8.30;;;2.00;;
54871;SDS011;43914;57.680;11.982;2023-08-06T00:04:59;7.90;;;1.80;;
54871;SDS011;43914;57.680;11.982;2023-08-06T00:07:24;9.80;;;1.90;;
54871;SDS011;43914;57.680;11.982;2023-08-06T00:09:50;7.80;;;1.70;;
54871;SDS011;43914;57.680;11.982;2023-08-06T00:12:15;7.60;;;2.10;;
54871;SDS011;43914;57.680;11.982;2023-08-06T00:14:40;6.90;;;2.00;;
54871;SDS011;43914;57.680;11.982;2023-08-06T00:17:06;7.40;;;1.80;;
54871;SDS011;43914;57.680;11.982;2023-08-06T00:19:32;8.30;;;2.00;;
54871;SDS011;43914;57.680;11.982;2023-08-06T00:21:57;6.50;;;1.90;;
54871;SDS011;43914;57.680;11.982;2023-08-06T00:24:23;8.70;;;2.10;;
54871;SDS011;43914;57.680;11.982;2023-08-06T00:26:48;8.00;;;2.20;;
54871;SDS011;43914;57.680;11.982;2023-08-06T00:29:14;6.20;;;2.10;;
54871;SDS011;43914;57.680;11.982;2023-08-06T00:31:39;8.50;;;1.90;;
54871;SDS011;43914;57.680;11.982;2023-08-06T00:34:05;6.80;;;1.90;;
54871;SDS011;43914;57.680;11.982;2023-08-06T00:36:31;7.10;;;2.20;;
54871;SDS011;43914;57.680;11.982;2023-08-06T00:38:56;5.00;;;1.70;;
54871;SDS011;43914;57.680;11.982;2023-08-06T00:41:21;6.20;;;1.70;;
54871;SDS011;43914;57.680;11.982;2023-08-06T00:43:47;5.80;;;1.70;;
54871;SDS011;43914;57.680;11.982;2023-08-06T00:46:13;5.30;;;1.70;;
54871;SDS011;43914;57.680;11.982;2023-08-06T00:48:39;5.80;;;1.90;;
54871;SDS011;43914;57.680;11.982;2023-08-06T00:51:07;7.20;;;1.90;;
54871;SDS011;43914;57.680;11.982;2023-08-06T00:53:36;7.60;;;2.10;;
54871;SDS011;43914;57.680;11.982;2023-08-06T00:56:03;8.30;;;1.90;;
54871;SDS011;43914;57.680;11.982;2023-08-06T00:58:29;9.30;;;2.00;;
54871;SDS011;43914;57.680;11.982;2023-08-06T01:00:55;5.80;;;1.70;;
54871;SDS011;43914;57.680;11.982;2023-08-06T01:03:20;7.90;;;2.00;;
54871;SDS011;43914;57.680;11.982;2023-08-06T01:05:46;6.80;;;1.90;;
54871;SDS011;43914;57.680;11.982;2023-08-06T01:08:44;9.20;;;1.70;;
54871;SDS011;43914;57.680;11.982;2023-08-06T01:16:55;6.10;;;2.00;;
54871;SDS011;43914;57.680;11.982;2023-08-06T01:19:23;4.90;;;1.70;;
54871;SDS011;43914;57.680;11.982;2023-08-06T01:21:50;6.90;;;1.90;;
54871;SDS011;43914;57.680;11.982;2023-08-06T01:24:15;4.90;;;1.70;;
54871;SDS011;43914;57.680;11.982;2023-08-06T01:29:17;7.00;;;1.70;;
54871;SDS011;43914;57.680;11.982;2023-08-06T01:31:48;8.80;;;1.70;;
54871;SDS011;43914;57.680;11.982;2023-08-06T01:34:17;5.20;;;1.80;;
54871;SDS011;43914;57.680;11.982;2023-08-06T01:36:45;5.60;;;1.60;;
54871;SDS011;43914;57.680;11.982;2023-08-06T01:39:11;7.30;;;2.20;;
54871;SDS011;43914;57.680;11.982;2023-08-06T01:41:37;6.90;;;1.80;;
54871;SDS011;43914;57.680;11.982;2023-08-06T01:44:02;5.60;;;1.70;;
54871;SDS011;43914;57.680;11.982;2023-08-06T01:46:28;5.70;;;1.90;;
54871;SDS011;43914;57.680;11.982;2023-08-06T01:48:54;6.90;;;2.00;;
54871;SDS011;43914;57.680;11.982;2023-08-06T01:51:19;5.40;;;1.80;;
54871;SDS011;43914;57.680;11.982;2023-08-06T01:53:45;5.30;;;1.60;;
54871;SDS011;43914;57.680;11.982;2023-08-06T01:56:10;6.50;;;1.90;;
54871;SDS011;43914;57.680;11.982;2023-08-06T01:58:36;6.10;;;1.90;;
54871;SDS011;43914;57.680;11.982;2023-08-06T02:01:02;9.40;;;3.20;;
54871;SDS011;43914;57.680;11.982;2023-08-06T02:03:27;5.00;;;1.70;;
54871;SDS011;43914;57.680;11.982;2023-08-06T02:05:53;5.10;;;1.70;;
54871;SDS011;43914;57.680;11.982;2023-08-06T02:08:18;7.30;;;2.00;;
54871;SDS011;43914;57.680;11.982;2023-08-06T02:10:44;7.40;;;1.90;;
54871;SDS011;43914;57.680;11.982;2023-08-06T02:13:10;5.90;;;2.10;;
54871;SDS011;43914;57.680;11.982;2023-08-06T02:15:41;6.20;;;1.90;;
54871;SDS011;43914;57.680;11.982;2023-08-06T02:18:12;7.40;;;1.90;;
54871;SDS011;43914;57.680;11.982;2023-08-06T02:20:38;5.90;;;1.80;;
54871;SDS011;43914;57.680;11.982;2023-08-06T02:23:04;8.00;;;1.80;;
54871;SDS011;43914;57.680;11.982;2023-08-06T02:25:29;6.00;;;2.00;;
54871;SDS011;43914;57.680;11.982;2023-08-06T02:27:56;6.40;;;1.80;;
54871;SDS011;43914;57.680;11.982;2023-08-06T02:30:21;6.10;;;1.70;;
54871;SDS011;43914;57.680;11.982;2023-08-06T02:32:47;6.10;;;2.00;;
54871;SDS011;43914;57.680;11.982;2023-08-06T02:35:13;7.50;;;2.00;;
54871;SDS011;43914;57.680;11.982;2023-08-06T02:37:38;6.10;;;1.90;;
54871;SDS011;43914;57.680;11.982;2023-08-06T02:40:04;6.60;;;2.00;;
54871;SDS011;43914;57.680;11.982;2023-08-06T02:42:30;8.10;;;1.70;;
54871;SDS011;43914;57.680;11.982;2023-08-06T02:44:56;8.60;;;2.30;;
54871;SDS011;43914;57.680;11.982;2023-08-06T02:47:21;7.70;;;2.00;;
54871;SDS011;43914;57.680;11.982;2023-08-06T02:49:47;8.10;;;2.20;;
54871;SDS011;43914;57.680;11.982;2023-08-06T02:52:13;6.90;;;2.00;;
54871;SDS011;43914;57.680;11.982;2023-08-06T02:54:42;5.50;;;1.90;;
54871;SDS011;43914;57.680;11.982;2023-08-06T02:57:07;5.80;;;2.00;;
54871;SDS011;43914;57.680;11.982;2023-08-06T02:59:33;8.30;;;1.90;;
54871;SDS011;43914;57.680;11.982;2023-08-06T03:01:59;6.90;;;2.20;;
54871;SDS011;43914;57.680;11.982;2023-08-06T03:04:24;7.00;;;2.10;;
54871;SDS011;43914;57.680;11.982;2023-08-06T03:06:50;6.90;;;2.00;;
54871;SDS011;43914;57.680;11.982;2023-08-06T03:09:17;5.20;;;1.90;;
54871;SDS011;43914;57.680;11.982;2023-08-06T03:11:43;10.10;;;1.90;;
54871;SDS011;43914;57.680;11.982;2023-08-06T03:14:09;6.00;;;1.90;;
54871;SDS011;43914;57.680;11.982;2023-08-06T03:16:35;5.90;;;1.70;;
54871;SDS011;43914;57.680;11.982;2023-08-06T03:19:00;5.80;;;2.00;;
54871;SDS011;43914;57.680;11.982;2023-08-06T03:21:26;8.30;;;2.10;;
54871;SDS011;43914;57.680;11.982;2023-08-06T03:23:51;6.70;;;1.70;;
54871;SDS011;43914;57.680;11.982;2023-08-06T03:26:17;6.00;;;2.00;;
54871;SDS011;43914;57.680;11.982;2023-08-06T03:28:42;5.40;;;1.90;;
54871;SDS011;43914;57.680;11.982;2023-08-06T03:31:08;6.00;;;1.80;;
54871;SDS011;43914;57.680;11.982;2023-08-06T03:33:34;8.20;;;2.10;;
54871;SDS011;43914;57.680;11.982;2023-08-06T03:35:59;7.00;;;2.00;;
54871;SDS011;43914;57.680;11.982;2023-08-06T03:38:25;5.40;;;1.80;;
54871;SDS011;43914;57.680;11.982;2023-08-06T03:40:50;5.50;;;1.80;;
54871;SDS011;43914;57.680;11.982;2023-08-06T03:43:16;6.30;;;1.70;;
54871;SDS011;43914;57.680;11.982;2023-08-06T03:45:42;5.40;;;1.80;;
54871;SDS011;43914;57.680;11.982;2023-08-06T03:48:08;9.30;;;2.00;;
54871;SDS011;43914;57.680;11.982;2023-08-06T03:50:33;4.90;;;1.70;;
54871;SDS011;43914;57.680;11.982;2023-08-06T03:52:59;8.00;;;2.00;;
54871;SDS011;43914;57.680;11.982;2023-08-06T03:55:25;6.20;;;1.70;;
54871;SDS011;43914;57.680;11.982;2023-08-06T03:57:50;6.20;;;1.60;;
54871;SDS011;43914;57.680;11.982;2023-08-06T04:00:16;6.60;;;1.80;;
54871;SDS011;43914;57.680;11.982;2023-08-06T04:02:42;5.60;;;1.70;;
54871;SDS011;43914;57.680;11.982;2023-08-06T04:05:08;5.40;;;1.50;;
54871;SDS011;43914;57.680;11.982;2023-08-06T04:07:34;8.30;;;2.10;;
54871;SDS011;43914;57.680;11.982;2023-08-06T04:10:00;7.10;;;1.90;;
54871;SDS011;43914;57.680;11.982;2023-08-06T04:12:28;6.50;;;1.90;;
54871;SDS011;43914;57.680;11.982;2023-08-06T04:14:54;7.70;;;1.80;;
54871;SDS011;43914;57.680;11.982;2023-08-06T04:17:21;6.50;;;2.30;;
54871;SDS011;43914;57.680;11.982;2023-08-06T04:19:50;8.70;;;1.90;;
54871;SDS011;43914;57.680;11.982;2023-08-06T04:22:17;6.50;;;1.80;;
54871;SDS011;43914;57.680;11.982;2023-08-06T04:24:43;6.30;;;1.90;;
54871;SDS011;43914;57.680;11.982;2023-08-06T04:27:10;8.10;;;2.00;;
54871;SDS011;43914;57.680;11.982;2023-08-06T04:29:36;6.50;;;1.70;;
54871;SDS011;43914;57.680;11.982;2023-08-06T04:32:03;6.80;;;2.40;;
54871;SDS011;43914;57.680;11.982;2023-08-06T04:34:30;6.10;;;1.60;;
54871;SDS011;43914;57.680;11.982;2023-08-06T04:36:56;7.50;;;1.70;;
54871;SDS011;43914;57.680;11.982;2023-08-06T04:39:22;6.80;;;2.00;;
54871;SDS011;43914;57.680;11.982;2023-08-06T04:41:47;7.30;;;1.90;;
54871;SDS011;43914;57.680;11.982;2023-08-06T04:44:13;5.70;;;1.70;;
54871;SDS011;43914;57.680;11.982;2023-08-06T04:46:39;7.80;;;1.80;;
54871;SDS011;43914;57.680;11.982;2023-08-06T04:49:04;9.50;;;1.70;;
54871;SDS011;43914;57.680;11.982;2023-08-06T04:51:30;8.60;;;1.90;;
54871;SDS011;43914;57.680;11.982;2023-08-06T04:53:56;6.10;;;1.60;;
54871;SDS011;43914;57.680;11.982;2023-08-06T04:56:22;7.60;;;1.70;;
54871;SDS011;43914;57.680;11.982;2023-08-06T04:58:48;5.60;;;1.60;;
54871;SDS011;43914;57.680;11.982;2023-08-06T05:01:13;6.10;;;1.70;;
54871;SDS011;43914;57.680;11.982;2023-08-06T05:03:39;6.70;;;1.90;;
54871;SDS011;43914;57.680;11.982;2023-08-06T05:06:05;5.20;;;1.60;;
54871;SDS011;43914;57.680;11.982;2023-08-06T05:08:30;6.00;;;1.70;;
54871;SDS011;43914;57.680;11.982;2023-08-06T05:10:56;7.30;;;1.80;;
54871;SDS011;43914;57.680;11.982;2023-08-06T05:13:21;7.10;;;1.80;;
54871;SDS011;43914;57.680;11.982;2023-08-06T05:15:47;5.00;;;1.80;;
54871;SDS011;43914;57.680;11.982;2023-08-06T05:18:13;8.10;;;1.90;;
54871;SDS011;43914;57.680;11.982;2023-08-06T05:20:39;6.60;;;1.80;;
54871;SDS011;43914;57.680;11.982;2023-08-06T05:23:07;6.00;;;1.60;;
54871;SDS011;43914;57.680;11.982;2023-08-06T05:25:36;5.90;;;1.60;;
54871;SDS011;43914;57.680;11.982;2023-08-06T05:28:02;5.30;;;1.40;;
54871;SDS011;43914;57.680;11.982;2023-08-06T05:30:28;5.60;;;1.50;;
54871;SDS011;43914;57.680;11.982;2023-08-06T05:32:54;6.00;;;1.70;;
54871;SDS011;43914;57.680;11.982;2023-08-06T05:35:20;6.00;;;1.60;;
54871;SDS011;43914;57.680;11.982;2023-08-06T05:37:47;6.60;;;1.70;;
54871;SDS011;43914;57.680;11.982;2023-08-06T05:40:13;7.40;;;1.80;;
54871;SDS011;43914;57.680;11.982;2023-08-06T05:42:40;5.30;;;1.60;;
54871;SDS011;43914;57.680;11.982;2023-08-06T05:45:06;6.70;;;1.80;;
54871;SDS011;43914;57.680;11.982;2023-08-06T05:47:32;7.20;;;1.90;;
54871;SDS011;43914;57.680;11.982;2023-08-06T05:49:57;5.50;;;1.70;;
54871;SDS011;43914;57.680;11.982;2023-08-06T05:52:23;4.80;;;1.30;;
54871;SDS011;43914;57.680;11.982;2023-08-06T05:54:48;6.30;;;1.60;;
54871;SDS011;43914;57.680;11.982;2023-08-06T05:57:13;5.30;;;1.60;;
54871;SDS011;43914;57.680;11.982;2023-08-06T05:59:40;5.40;;;1.50;;
54871;SDS011;43914;57.680;11.982;2023-08-06T06:02:06;5.60;;;1.70;;
54871;SDS011;43914;57.680;11.982;2023-08-06T06:04:31;5.70;;;1.50;;
54871;SDS011;43914;57.680;11.982;2023-08-06T06:06:57;4.50;;;1.40;;
54871;SDS011;43914;57.680;11.982;2023-08-06T06:09:22;4.40;;;1.60;;
54871;SDS011;43914;57.680;11.982;2023-08-06T06:11:49;5.80;;;1.60;;
54871;SDS011;43914;57.680;11.982;2023-08-06T06:14:16;6.00;;;2.00;;
54871;SDS011;43914;57.680;11.982;2023-08-06T06:16:42;5.10;;;1.60;;
54871;SDS011;43914;57.680;11.982;2023-08-06T06:19:07;5.50;;;1.50;;
54871;SDS011;43914;57.680;11.982;2023-08-06T06:21:33;7.10;;;2.00;;
54871;SDS011;43914;57.680;11.982;2023-08-06T06:23:58;7.70;;;1.50;;
54871;SDS011;43914;57.680;11.982;2023-08-06T06:26:24;6.00;;;1.80;;
54871;SDS011;43914;57.680;11.982;2023-08-06T06:28:49;5.90;;;1.80;;
54871;SDS011;43914;57.680;11.982;2023-08-06T06:31:15;5.40;;;1.60;;
54871;SDS011;43914;57.680;11.982;2023-08-06T06:33:40;6.20;;;1.60;;
54871;SDS011;43914;57.680;11.982;2023-08-06T06:36:06;4.50;;;1.50;;
54871;SDS011;43914;57.680;11.982;2023-08-06T06:38:33;5.30;;;1.60;;
54871;SDS011;43914;57.680;11.982;2023-08-06T06:40:59;6.60;;;1.80;;
54871;SDS011;43914;57.680;11.982;2023-08-06T06:43:25;4.50;;;1.30;;
54871;SDS011;43914;57.680;11.982;2023-08-06T06:45:57;5.70;;;1.40;;
54871;SDS011;43914;57.680;11.982;2023-08-06T06:48:27;4.50;;;1.40;;
54871;SDS011;43914;57.680;11.982;2023-08-06T06:50:55;4.30;;;1.40;;
54871;SDS011;43914;57.680;11.982;2023-08-06T06:53:21;4.60;;;1.40;;
54871;SDS011;43914;57.680;11.982;2023-08-06T06:55:53;6.10;;;1.50;;
54871;SDS011;43914;57.680;11.982;2023-08-06T06:58:27;7.00;;;1.80;;
54871;SDS011;43914;57.680;11.982;2023-08-06T07:00:52;5.00;;;1.40;;
54871;SDS011;43914;57.680;11.982;2023-08-06T07:03:19;8.10;;;1.70;;
54871;SDS011;43914;57.680;11.982;2023-08-06T07:05:45;5.60;;;1.30;;
54871;SDS011;43914;57.680;11.982;2023-08-06T07:08:10;5.50;;;1.40;;
54871;SDS011;43914;57.680;11.982;2023-08-06T07:10:36;4.30;;;1.20;;
54871;SDS011;43914;57.680;11.982;2023-08-06T07:13:03;5.00;;;1.20;;
54871;SDS011;43914;57.680;11.982;2023-08-06T07:15:28;4.70;;;1.30;;
54871;SDS011;43914;57.680;11.982;2023-08-06T07:17:54;6.20;;;1.50;;
54871;SDS011;43914;57.680;11.982;2023-08-06T07:20:20;5.00;;;1.50;;
54871;SDS011;43914;57.680;11.982;2023-08-06T07:22:45;5.40;;;1.40;;
54871;SDS011;43914;57.680;11.982;2023-08-06T07:25:11;7.20;;;1.50;;
54871;SDS011;43914;57.680;11.982;2023-08-06T07:27:36;4.60;;;1.40;;
54871;SDS011;43914;57.680;11.982;2023-08-06T07:30:02;5.30;;;1.30;;
54871;SDS011;43914;57.680;11.982;2023-08-06T07:32:30;4.30;;;1.30;;
54871;SDS011;43914;57.680;11.982;2023-08-06T07:34:56;5.30;;;1.40;;
54871;SDS011;43914;57.680;11.982;2023-08-06T07:37:24;4.60;;;1.30;;
54871;SDS011;43914;57.680;11.982;2023-08-06T07:39:50;5.80;;;1.30;;
54871;SDS011;43914;57.680;11.982;2023-08-06T07:42:16;4.30;;;1.40;;
54871;SDS011;43914;57.680;11.982;2023-08-06T07:44:41;5.10;;;1.40;;
54871;SDS011;43914;57.680;11.982;2023-08-06T07:47:06;4.80;;;1.30;;
54871;SDS011;43914;57.680;11.982;2023-08-06T07:49:32;4.80;;;1.30;;
54871;SDS011;43914;57.680;11.982;2023-08-06T07:51:58;4.10;;;1.50;;
54871;SDS011;43914;57.680;11.982;2023-08-06T07:54:23;4.80;;;1.40;;
54871;SDS011;43914;57.680;11.982;2023-08-06T07:56:49;7.90;;;1.30;;
54871;SDS011;43914;57.680;11.982;2023-08-06T07:59:15;4.80;;;1.10;;
54871;SDS011;43914;57.680;11.982;2023-08-06T08:01:40;4.40;;;1.10;;
54871;SDS011;43914;57.680;11.982;2023-08-06T08:04:06;4.30;;;1.50;;
54871;SDS011;43914;57.680;11.982;2023-08-06T08:06:32;5.60;;;1.20;;
54871;SDS011;43914;57.680;11.982;2023-08-06T08:08:58;5.00;;;1.30;;
54871;SDS011;43914;57.680;11.982;2023-08-06T08:11:25;5.60;;;1.30;;
54871;SDS011;43914;57.680;11.982;2023-08-06T08:13:51;5.80;;;1.60;;
54871;SDS011;43914;57.680;11.982;2023-08-06T08:16:16;5.50;;;1.30;;
54871;SDS011;43914;57.680;11.982;2023-08-06T08:18:42;6.90;;;1.20;;
54871;SDS011;43914;57.680;11.982;2023-08-06T08:21:07;7.30;;;1.10;;
54871;SDS011;43914;57.680;11.982;2023-08-06T08:23:33;4.50;;;1.20;;
54871;SDS011;43914;57.680;11.982;2023-08-06T08:25:59;5.10;;;1.20;;
54871;SDS011;43914;57.680;11.982;2023-08-06T08:28:27;7.00;;;1.30;;
54871;SDS011;43914;57.680;11.982;2023-08-06T08:30:52;4.30;;;1.20;;
54871;SDS011;43914;57.680;11.982;2023-08-06T08:33:18;6.30;;;1.40;;
54871;SDS011;43914;57.680;11.982;2023-08-06T08:35:45;7.10;;;1.30;;
54871;SDS011;43914;57.680;11.982;2023-08-06T08:38:10;4.20;;;1.30;;
54871;SDS011;43914;57.680;11.982;2023-08-06T08:40:37;5.50;;;1.50;;
54871;SDS011;43914;57.680;11.982;2023-08-06T08:43:09;5.20;;;1.40;;
54871;SDS011;43914;57.680;11.982;2023-08-06T08:45:35;3.20;;;1.10;;
54871;SDS011;43914;57.680;11.982;2023-08-06T08:48:05;6.80;;;1.20;;
54871;SDS011;43914;57.680;11.982;2023-08-06T08:50:40;5.80;;;1.30;;
54871;SDS011;43914;57.680;11.982;2023-08-06T08:53:10;6.80;;;1.30;;
54871;SDS011;43914;57.680;11.982;2023-08-06T08:55:38;4.30;;;1.20;;
54871;SDS011;43914;57.680;11.982;2023-08-06T08:58:06;5.00;;;1.50;;
54871;SDS011;43914;57.680;11.982;2023-08-06T09:00:32;5.40;;;1.20;;
54871;SDS011;43914;57.680;11.982;2023-08-06T09:02:58;3.60;;;1.00;;
54871;SDS011;43914;57.680;11.982;2023-08-06T09:05:25;5.50;;;1.30;;
54871;SDS011;43914;57.680;11.982;2023-08-06T09:07:55;6.30;;;1.40;;
54871;SDS011;43914;57.680;11.982;2023-08-06T09:10:36;5.20;;;1.20;;
54871;SDS011;43914;57.680;11.982;2023-08-06T09:13:02;5.70;;;1.40;;
54871;SDS011;43914;57.680;11.982;2023-08-06T09:15:29;5.70;;;1.20;;
54871;SDS011;43914;57.680;11.982;2023-08-06T09:17:55;5.50;;;1.30;;
54871;SDS011;43914;57.680;11.982;2023-08-06T09:20:21;3.80;;;1.10;;
54871;SDS011;43914;57.680;11.982;2023-08-06T09:22:47;5.00;;;1.30;;
54871;SDS011;43914;57.680;11.982;2023-08-06T09:25:21;4.10;;;1.20;;
54871;SDS011;43914;57.680;11.982;2023-08-06T09:27:49;4.30;;;1.20;;
54871;SDS011;43914;57.680;11.982;2023-08-06T09:30:30;4.60;;;1.20;;
54871;SDS011;43914;57.680;11.982;2023-08-06T09:32:58;5.20;;;1.20;;
54871;SDS011;43914;57.680;11.982;2023-08-06T09:35:24;6.70;;;1.50;;
54871;SDS011;43914;57.680;11.982;2023-08-06T09:37:49;5.30;;;1.20;;
54871;SDS011;43914;57.680;11.982;2023-08-06T09:42:54;4.00;;;1.00;;
54871;SDS011;43914;57.680;11.982;2023-08-06T09:45:20;5.00;;;1.20;;
54871;SDS011;43914;57.680;11.982;2023-08-06T09:47:50;4.20;;;1.20;;
54871;SDS011;43914;57.680;11.982;2023-08-06T09:50:19;6.90;;;1.40;;
54871;SDS011;43914;57.680;11.982;2023-08-06T09:52:53;5.50;;;1.30;;
54871;SDS011;43914;57.680;11.982;2023-08-06T09:55:20;3.60;;;1.20;;
54871;SDS011;43914;57.680;11.982;2023-08-06T09:57:46;3.80;;;1.10;;
54871;SDS011;43914;57.680;11.982;2023-08-06T10:00:12;7.20;;;1.30;;
54871;SDS011;43914;57.680;11.982;2023-08-06T10:02:38;5.40;;;1.40;;
54871;SDS011;43914;57.680;11.982;2023-08-06T10:05:05;7.20;;;1.10;;
54871;SDS011;43914;57.680;11.982;2023-08-06T10:07:32;4.60;;;1.20;;
54871;SDS011;43914;57.680;11.982;2023-08-06T10:09:58;5.90;;;1.50;;
54871;SDS011;43914;57.680;11.982;2023-08-06T10:12:24;5.40;;;1.30;;
54871;SDS011;43914;57.680;11.982;2023-08-06T10:14:54;7.30;;;1.30;;
54871;SDS011;43914;57.680;11.982;2023-08-06T10:17:22;5.40;;;1.40;;
54871;SDS011;43914;57.680;11.982;2023-08-06T10:19:49;6.20;;;1.40;;
54871;SDS011;43914;57.680;11.982;2023-08-06T10:22:17;6.00;;;1.50;;
54871;SDS011;43914;57.680;11.982;2023-08-06T10:27:33;4.70;;;1.40;;
54871;SDS011;43914;57.680;11.982;2023-08-06T10:32:52;6.00;;;1.60;;
54871;SDS011;43914;57.680;11.982;2023-08-06T10:43:39;6.00;;;1.40;;
54871;SDS011;43914;57.680;11.982;2023-08-06T10:46:10;5.60;;;1.40;;
54871;SDS011;43914;57.680;11.982;2023-08-06T10:48:40;5.60;;;1.40;;
54871;SDS011;43914;57.680;11.982;2023-08-06T10:51:10;5.50;;;1.40;;
54871;SDS011;43914;57.680;11.982;2023-08-06T10:53:37;6.00;;;1.50;;
54871;SDS011;43914;57.680;11.982;2023-08-06T10:56:13;8.30;;;1.30;;
54871;SDS011;43914;57.680;11.982;2023-08-06T10:58:40;6.70;;;1.30;;
54871;SDS011;43914;57.680;11.982;2023-08-06T11:01:09;4.40;;;1.20;;
54871;SDS011;43914;57.680;11.982;2023-08-06T11:03:35;5.30;;;1.40;;
54871;SDS011;43914;57.680;11.982;2023-08-06T11:06:01;4.70;;;1.40;;
54871;SDS011;43914;57.680;11.982;2023-08-06T11:08:28;7.30;;;1.50;;
54871;SDS011;43914;57.680;11.982;2023-08-06T11:11:07;5.40;;;1.40;;
54871;SDS011;43914;57.680;11.982;2023-08-06T11:13:36;5.80;;;1.20;;
54871;SDS011;43914;57.680;11.982;2023-08-06T11:16:03;4.90;;;1.40;;
54871;SDS011;43914;57.680;11.982;2023-08-06T11:18:29;7.10;;;1.30;;
54871;SDS011;43914;57.680;11.982;2023-08-06T11:20:55;4.90;;;1.40;;
54871;SDS011;43914;57.680;11.982;2023-08-06T11:23:20;5.30;;;1.30;;
54871;SDS011;43914;57.680;11.982;2023-08-06T11:25:46;5.50;;;1.40;;
54871;SDS011;43914;57.680;11.982;2023-08-06T11:28:12;5.10;;;1.40;;
54871;SDS011;43914;57.680;11.982;2023-08-06T11:30:38;5.40;;;1.40;;
54871;SDS011;43914;57.680;11.982;2023-08-06T11:33:06;6.90;;;1.50;;
54871;SDS011;43914;57.680;11.982;2023-08-06T11:35:34;5.10;;;1.50;;
54871;SDS011;43914;57.680;11.982;2023-08-06T11:38:01;7.70;;;1.50;;
54871;SDS011;43914;57.680;11.982;2023-08-06T11:40:26;5.90;;;1.40;;
54871;SDS011;43914;57.680;11.982;2023-08-06T11:42:52;5.90;;;1.30;;
54871;SDS011;43914;57.680;11.982;2023-08-06T11:45:21;7.60;;;1.30;;
54871;SDS011;43914;57.680;11.982;2023-08-06T11:47:51;5.10;;;1.40;;
54871;SDS011;43914;57.680;11.982;2023-08-06T11:50:22;5.60;;;1.50;;
54871;SDS011;43914;57.680;11.982;2023-08-06T11:52:52;7.10;;;1.40;;
54871;SDS011;43914;57.680;11.982;2023-08-06T11:55:22;4.90;;;1.30;;
54871;SDS011;43914;57.680;11.982;2023-08-06T11:57:48;5.80;;;1.50;;
54871;SDS011;43914;57.680;11.982;2023-08-06T12:00:14;5.90;;;1.50;;
54871;SDS011;43914;57.680;11.982;2023-08-06T12:02:42;5.20;;;1.60;;
54871;SDS011;43914;57.680;11.982;2023-08-06T12:07:44;4.60;;;1.20;;
54871;SDS011;43914;57.680;11.982;2023-08-06T12:10:11;3.70;;;1.20;;
54871;SDS011;43914;57.680;11.982;2023-08-06T12:12:38;5.30;;;1.30;;
54871;SDS011;43914;57.680;11.982;2023-08-06T12:15:04;4.80;;;1.30;;
54871;SDS011;43914;57.680;11.982;2023-08-06T12:17:31;6.10;;;1.40;;
54871;SDS011;43914;57.680;11.982;2023-08-06T12:19:57;10.10;;;1.80;;
54871;SDS011;43914;57.680;11.982;2023-08-06T12:22:23;6.10;;;1.50;;
54871;SDS011;43914;57.680;11.982;2023-08-06T12:24:48;6.40;;;1.60;;
54871;SDS011;43914;57.680;11.982;2023-08-06T12:27:14;6.60;;;1.50;;
54871;SDS011;43914;57.680;11.982;2023-08-06T12:29:44;5.60;;;1.50;;
54871;SDS011;43914;57.680;11.982;2023-08-06T12:32:11;7.30;;;1.50;;
54871;SDS011;43914;57.680;11.982;2023-08-06T12:34:38;5.90;;;1.50;;
54871;SDS011;43914;57.680;11.982;2023-08-06T12:37:04;4.70;;;1.30;;
54871;SDS011;43914;57.680;11.982;2023-08-06T12:39:31;6.00;;;1.40;;
54871;SDS011;43914;57.680;11.982;2023-08-06T12:41:57;9.20;;;1.90;;
54871;SDS011;43914;57.680;11.982;2023-08-06T12:44:24;5.00;;;1.30;;
54871;SDS011;43914;57.680;11.982;2023-08-06T12:46:50;6.00;;;1.50;;
54871;SDS011;43914;57.680;11.982;2023-08-06T12:49:17;6.70;;;1.50;;
54871;SDS011;43914;57.680;11.982;2023-08-06T12:51:43;7.40;;;1.60;;
54871;SDS011;43914;57.680;11.982;2023-08-06T12:54:08;6.30;;;1.50;;
54871;SDS011;43914;57.680;11.982;2023-08-06T12:56:34;7.40;;;1.80;;
54871;SDS011;43914;57.680;11.982;2023-08-06T12:59:00;7.30;;;1.40;;
54871;SDS011;43914;57.680;11.982;2023-08-06T13:01:25;6.30;;;1.50;;
54871;SDS011;43914;57.680;11.982;2023-08-06T13:03:51;6.00;;;1.50;;
54871;SDS011;43914;57.680;11.982;2023-08-06T13:06:16;7.40;;;1.50;;
54871;SDS011;43914;57.680;11.982;2023-08-06T13:08:42;7.10;;;1.50;;
54871;SDS011;43914;57.680;11.982;2023-08-06T13:11:07;5.30;;;1.50;;
54871;SDS011;43914;57.680;11.982;2023-08-06T13:13:33;6.10;;;1.60;;
54871;SDS011;43914;57.680;11.982;2023-08-06T13:15:59;8.00;;;1.80;;
54871;SDS011;43914;57.680;11.982;2023-08-06T13:18:24;6.80;;;1.70;;
54871;SDS011;43914;57.680;11.982;2023-08-06T13:20:51;7.20;;;1.50;;
54871;SDS011;43914;57.680;11.982;2023-08-06T13:23:19;6.40;;;1.60;;
54871;SDS011;43914;57.680;11.982;2023-08-06T13:25:46;6.40;;;1.60;;
54871;SDS011;43914;57.680;11.982;2023-08-06T13:28:11;6.00;;;1.50;;
54871;SDS011;43914;57.680;11.982;2023-08-06T13:30:39;6.20;;;1.40;;
54871;SDS011;43914;57.680;11.982;2023-08-06T13:33:10;6.20;;;1.40;;
54871;SDS011;43914;57.680;11.982;2023-08-06T13:35:36;8.10;;;1.50;;
54871;SDS011;43914;57.680;11.982;2023-08-06T13:38:04;5.30;;;1.30;;
54871;SDS011;43914;57.680;11.982;2023-08-06T13:40:32;5.60;;;1.50;;
54871;SDS011;43914;57.680;11.982;2023-08-06T13:42:59;5.50;;;1.50;;
54871;SDS011;43914;57.680;11.982;2023-08-06T13:45:25;6.40;;;1.50;;
54871;SDS011;43914;57.680;11.982;2023-08-06T13:47:51;4.70;;;1.40;;
54871;SDS011;43914;57.680;11.982;2023-08-06T13:50:16;5.60;;;1.50;;
54871;SDS011;43914;57.680;11.982;2023-08-06T13:52:42;6.40;;;1.70;;
54871;SDS011;43914;57.680;11.982;2023-08-06T13:55:07;6.40;;;1.50;;
54871;SDS011;43914;57.680;11.982;2023-08-06T13:57:34;6.10;;;1.40;;
54871;SDS011;43914;57.680;11.982;2023-08-06T14:00:00;6.20;;;1.50;;
54871;SDS011;43914;57.680;11.982;2023-08-06T14:02:26;5.40;;;1.50;;
54871;SDS011;43914;57.680;11.982;2023-08-06T14:04:54;5.60;;;1.40;;
54871;SDS011;43914;57.680;11.982;2023-08-06T14:07:20;5.10;;;1.40;;
54871;SDS011;43914;57.680;11.982;2023-08-06T14:09:46;5.00;;;1.30;;
54871;SDS011;43914;57.680;11.982;2023-08-06T14:12:12;5.70;;;1.40;;
54871;SDS011;43914;57.680;11.982;2023-08-06T14:14:39;5.00;;;1.40;;
54871;SDS011;43914;57.680;11.982;2023-08-06T14:17:05;4.90;;;1.20;;
54871;SDS011;43914;57.680;11.982;2023-08-06T14:19:30;4.10;;;1.20;;
54871;SDS011;43914;57.680;11.982;2023-08-06T14:21:57;5.40;;;1.60;;
54871;SDS011;43914;57.680;11.982;2023-08-06T14:24:22;6.30;;;1.50;;
54871;SDS011;43914;57.680;11.982;2023-08-06T14:26:48;5.30;;;1.30;;
54871;SDS011;43914;57.680;11.982;2023-08-06T14:29:13;5.00;;;1.50;;
54871;SDS011;43914;57.680;11.982;2023-08-06T14:31:42;5.70;;;1.20;;
54871;SDS011;43914;57.680;11.982;2023-08-06T14:34:07;4.10;;;1.20;;
54871;SDS011;43914;57.680;11.982;2023-08-06T14:36:33;8.10;;;1.50;;
54871;SDS011;43914;57.680;11.982;2023-08-06T14:38:59;3.70;;;1.30;;
54871;SDS011;43914;57.680;11.982;2023-08-06T14:41:24;5.40;;;1.30;;
54871;SDS011;43914;57.680;11.982;2023-08-06T14:43:50;5.70;;;1.30;;
54871;SDS011;43914;57.680;11.982;2023-08-06T14:46:17;6.90;;;1.40;;
54871;SDS011;43914;57.680;11.982;2023-08-06T14:48:42;5.90;;;1.40;;
54871;SDS011;43914;57.680;11.982;2023-08-06T14:51:11;6.10;;;1.30;;
54871;SDS011;43914;57.680;11.982;2023-08-06T14:53:38;5.90;;;1.30;;
54871;SDS011;43914;57.680;11.982;2023-08-06T14:56:05;6.00;;;1.40;;